createdAt,value
2022-11-24T00:01:36.727Z,3.57
2022-11-24T00:04:40.774Z,3.62
2022-11-24T00:07:44.934Z,3.58
2022-11-24T00:10:49.015Z,3.51
2022-11-24T00:13:52.214Z,3.51
2022-11-24T00:16:56.485Z,3.45
2022-11-24T00:20:00.583Z,3.60
2022-11-24T00:23:04.796Z,3.64
2022-11-24T00:26:10.884Z,3.52
2022-11-24T00:29:13.721Z,3.67
2022-11-24T00:32:17.717Z,3.61
2022-11-24T00:35:21.753Z,3.74
2022-11-24T00:38:26.673Z,3.61
2022-11-24T00:41:31.761Z,3.57
2022-11-24T00:44:34.658Z,3.55
2022-11-24T00:47:38.897Z,3.60
2022-11-24T00:50:42.953Z,3.63
2022-11-24T00:53:48.770Z,3.58
2022-11-24T00:56:51.525Z,3.49
2022-11-24T00:59:55.569Z,3.60
2022-11-24T01:02:58.361Z,3.49
2022-11-24T01:06:06.577Z,3.59
2022-11-24T01:09:11.987Z,3.60
2022-11-24T01:12:15.993Z,3.63
2022-11-24T01:15:19.047Z,3.52
2022-11-24T01:18:23.045Z,3.60
2022-11-24T01:21:27.462Z,3.55
2022-11-24T01:24:32.022Z,3.54
2022-11-24T01:27:36.213Z,3.51
2022-11-24T01:30:40.249Z,3.56
2022-11-24T01:33:43.494Z,3.58
2022-11-24T01:36:47.508Z,3.72
2022-11-24T01:39:51.700Z,3.71
2022-11-24T01:42:55.710Z,3.64
2022-11-24T01:46:03.849Z,3.50
2022-11-24T01:49:15.922Z,3.46
2022-11-24T01:52:24.981Z,3.43
2022-11-24T01:55:33.913Z,3.46
2022-11-24T01:58:39.846Z,3.46
2022-11-24T02:05:09.322Z,3.37
2022-11-24T02:08:20.284Z,3.44
2022-11-24T02:11:26.587Z,3.41
2022-11-24T02:14:30.947Z,3.53
2022-11-24T02:17:35.056Z,3.41
2022-11-24T02:20:38.114Z,3.47
2022-11-24T02:23:51.911Z,3.44
2022-11-24T02:26:56.036Z,3.41
2022-11-24T02:30:00.709Z,3.33
2022-11-24T02:33:05.011Z,3.38
2022-11-24T02:36:08.494Z,3.44
2022-11-24T02:39:13.687Z,3.50
2022-11-24T02:42:18.051Z,3.42
2022-11-24T02:45:24.157Z,3.37
2022-11-24T02:48:28.284Z,3.33
2022-11-24T02:51:31.034Z,3.30
2022-11-24T02:54:35.291Z,3.36
2022-11-24T02:57:39.679Z,3.38
2022-11-24T03:00:43.867Z,3.33
2022-11-24T03:03:48.251Z,3.25
2022-11-24T03:06:51.095Z,3.32
2022-11-24T03:09:55.154Z,3.31
2022-11-24T03:12:59.616Z,3.29
2022-11-24T03:16:03.676Z,3.34
2022-11-24T03:19:06.506Z,3.24
2022-11-24T03:22:12.335Z,3.37
2022-11-24T03:25:15.134Z,3.25
2022-11-24T03:28:20.552Z,3.30
2022-11-24T03:31:25.454Z,3.33
2022-11-24T03:34:28.295Z,3.45
2022-11-24T03:37:32.776Z,3.27
2022-11-24T03:40:35.545Z,3.17
2022-11-24T03:43:43.983Z,3.17
2022-11-24T03:46:48.589Z,3.16
2022-11-24T03:49:51.438Z,3.31
2022-11-24T03:52:55.592Z,3.28
2022-11-24T03:55:58.625Z,3.30
2022-11-24T03:59:04.349Z,3.27
2022-11-24T04:02:09.059Z,3.20
2022-11-24T04:05:11.841Z,3.33
2022-11-24T04:08:16.789Z,3.22
2022-11-24T04:11:33.435Z,3.13
2022-11-24T04:14:38.814Z,3.20
2022-11-24T04:17:42.934Z,3.25
2022-11-24T04:20:45.922Z,3.15
2022-11-24T04:23:49.957Z,3.11
2022-11-24T04:26:52.752Z,3.02
2022-11-24T04:29:58.186Z,3.10
2022-11-24T04:33:01.035Z,3.11
2022-11-24T04:36:05.330Z,3.21
2022-11-24T04:39:25.671Z,3.16
2022-11-24T04:42:30.651Z,3.18
2022-11-24T04:45:34.817Z,3.25
2022-11-24T04:48:37.632Z,3.21
2022-11-24T04:51:40.545Z,3.17
2022-11-24T04:54:43.646Z,3.17
2022-11-24T04:57:46.497Z,3.16
2022-11-24T05:00:50.670Z,3.16
2022-11-24T05:03:54.694Z,3.14
2022-11-24T05:06:57.499Z,3.29
2022-11-24T05:10:29.091Z,3.25
2022-11-24T05:13:33.207Z,3.18
2022-11-24T05:16:37.743Z,3.21
2022-11-24T05:19:41.676Z,3.29
2022-11-24T05:22:44.334Z,3.17
2022-11-24T05:25:47.922Z,3.18
2022-11-24T05:28:52.041Z,3.20
2022-11-24T05:31:56.792Z,3.19
2022-11-24T05:35:01.359Z,3.24
2022-11-24T05:38:05.103Z,3.31
2022-11-24T05:41:08.986Z,3.22
2022-11-24T05:44:11.771Z,3.20
2022-11-24T05:47:17.034Z,3.23
2022-11-24T05:50:23.020Z,3.09
2022-11-24T05:53:26.946Z,3.27
2022-11-24T05:56:30.874Z,3.15
2022-11-24T05:59:33.835Z,3.15
2022-11-24T06:02:38.104Z,3.17
2022-11-24T06:05:42.162Z,3.09
2022-11-24T06:08:44.853Z,3.13
2022-11-24T06:11:49.367Z,3.20
2022-11-24T06:14:53.237Z,3.16
2022-11-24T06:17:57.445Z,3.17
2022-11-24T06:21:10.967Z,3.18
2022-11-24T06:24:15.874Z,3.19
2022-11-24T06:27:20.470Z,3.28
2022-11-24T06:30:24.632Z,3.08
2022-11-24T06:33:32.141Z,3.05
2022-11-24T06:36:35.051Z,3.01
2022-11-24T06:39:37.789Z,3.12
2022-11-24T06:42:40.590Z,3.02
2022-11-24T06:45:44.484Z,3.06
2022-11-24T06:48:48.569Z,3.01
2022-11-24T06:51:52.438Z,3.05
2022-11-24T06:54:55.350Z,3.12
2022-11-24T06:57:58.059Z,3.22
2022-11-24T07:01:02.107Z,3.21
2022-11-24T07:04:06.458Z,3.18
2022-11-24T07:07:10.395Z,3.16
2022-11-24T07:10:13.149Z,3.11
2022-11-24T07:13:16.224Z,3.21
2022-11-24T07:16:22.258Z,3.15
2022-11-24T07:19:26.409Z,3.14
2022-11-24T07:22:29.354Z,3.07
2022-11-24T07:25:32.110Z,3.15
2022-11-24T07:28:37.697Z,3.10
2022-11-24T07:31:40.610Z,3.13
2022-11-24T07:34:44.748Z,3.16
2022-11-24T07:37:48.742Z,3.22
2022-11-24T07:40:52.583Z,3.29
2022-11-24T07:43:55.273Z,3.18
2022-11-24T07:46:59.389Z,3.19
2022-11-24T07:50:03.563Z,3.21
2022-11-24T07:53:07.473Z,3.27
2022-11-24T07:56:10.745Z,3.33
2022-11-24T07:59:14.672Z,3.32
2022-11-24T08:02:18.711Z,3.31
2022-11-24T08:05:24.039Z,3.39
2022-11-24T08:08:27.426Z,3.45
2022-11-24T08:11:32.577Z,3.41
2022-11-24T08:14:35.448Z,3.43
2022-11-24T08:17:39.581Z,3.50
2022-11-24T08:20:43.655Z,3.47
2022-11-24T08:23:47.807Z,3.45
2022-11-24T08:26:50.520Z,3.62
2022-11-24T08:29:54.500Z,3.70
2022-11-24T08:33:00.024Z,3.82
2022-11-24T08:36:09.048Z,3.84
2022-11-24T08:39:14.182Z,3.89
2022-11-24T08:42:16.971Z,3.89
2022-11-24T08:45:23.121Z,3.99
2022-11-24T08:48:27.587Z,3.96
2022-11-24T08:51:31.695Z,3.98
2022-11-24T08:54:36.035Z,3.99
2022-11-24T08:57:38.951Z,4.11
2022-11-24T09:00:41.770Z,4.15
2022-11-24T09:03:50.368Z,4.24
2022-11-24T09:06:55.203Z,4.25
2022-11-24T09:09:59.282Z,4.29
2022-11-24T09:13:06.376Z,4.46
2022-11-24T09:16:11.373Z,4.54
2022-11-24T09:19:15.540Z,4.58
2022-11-24T09:22:24.887Z,4.69
2022-11-24T09:25:27.908Z,4.71
2022-11-24T09:28:30.677Z,4.74
2022-11-24T09:31:37.371Z,4.74
2022-11-24T09:34:40.108Z,4.82
2022-11-24T09:37:46.904Z,4.86
2022-11-24T09:40:51.474Z,4.97
2022-11-24T09:44:07.441Z,5.11
2022-11-24T09:47:17.765Z,5.12
2022-11-24T09:50:23.007Z,5.12
2022-11-24T09:53:35.569Z,5.00
2022-11-24T09:56:41.505Z,5.06
2022-11-24T09:59:44.320Z,5.20
2022-11-24T10:06:23.303Z,5.34
2022-11-24T10:09:42.451Z,5.43
2022-11-24T10:12:57.870Z,5.65
2022-11-24T10:16:09.664Z,5.72
2022-11-24T10:19:21.911Z,5.86
2022-11-24T10:22:40.449Z,5.91
2022-11-24T10:25:52.450Z,6.14
2022-11-24T10:28:56.816Z,6.22
2022-11-24T10:32:00.793Z,6.24
2022-11-24T10:35:17.269Z,6.26
2022-11-24T10:38:32.744Z,6.33
2022-11-24T10:45:12.977Z,7.19
2022-11-24T10:51:50.290Z,7.58
2022-11-24T10:54:59.502Z,7.16
2022-11-24T10:58:16.204Z,7.16
2022-11-24T11:01:29.991Z,6.79
2022-11-24T11:04:34.257Z,6.64
2022-11-24T11:07:38.323Z,6.54
2022-11-24T11:10:41.971Z,6.62
2022-11-24T11:13:56.842Z,6.52
2022-11-24T11:17:03.054Z,6.49
2022-11-24T11:20:18.572Z,6.55
2022-11-24T11:23:26.440Z,6.52
2022-11-24T11:26:34.957Z,6.71
2022-11-24T11:36:26.599Z,6.86
2022-11-24T11:39:34.161Z,6.90
2022-11-24T11:43:01.952Z,6.95
2022-11-24T11:46:14.943Z,6.93
2022-11-24T11:49:19.066Z,6.89
2022-11-24T11:52:43.753Z,6.92
2022-11-24T11:55:57.382Z,6.79
2022-11-24T11:59:31.241Z,6.80
2022-11-24T12:03:01.694Z,6.68
2022-11-24T12:06:15.899Z,6.62
2022-11-24T12:09:26.062Z,6.64
2022-11-24T12:13:11.763Z,6.72
2022-11-24T12:16:31.502Z,6.78
2022-11-24T12:20:02.669Z,6.80
2022-11-24T12:23:16.842Z,6.82
2022-11-24T12:26:27.464Z,6.93
2022-11-24T12:29:58.422Z,6.93
2022-11-24T12:33:26.314Z,6.96
2022-11-24T12:36:50.996Z,6.96
2022-11-24T12:40:03.391Z,7.01
2022-11-24T12:43:14.630Z,7.08
2022-11-24T12:50:00.301Z,7.09
2022-11-24T12:53:08.695Z,7.07
2022-11-24T12:59:45.425Z,6.98
2022-11-24T13:03:06.623Z,7.03
2022-11-24T13:09:40.440Z,7.16
2022-11-24T13:12:54.963Z,7.06
2022-11-24T13:19:39.664Z,7.19
2022-11-24T13:22:48.248Z,7.09
2022-11-24T13:26:15.894Z,7.13
2022-11-24T13:29:35.237Z,7.13
2022-11-24T13:32:48.261Z,7.00
2022-11-24T13:36:30.135Z,6.96
2022-11-24T13:39:51.346Z,6.89
2022-11-24T13:43:23.505Z,6.86
2022-11-24T13:47:05.115Z,6.94
2022-11-24T13:50:39.994Z,6.94
2022-11-24T13:53:48.059Z,6.92
2022-11-24T14:00:24.243Z,7.09
2022-11-24T14:03:32.406Z,7.02
2022-11-24T14:06:40.610Z,7.10
2022-11-24T14:09:47.080Z,7.05
2022-11-24T14:13:26.421Z,7.09
2022-11-24T14:16:30.635Z,7.14
2022-11-24T14:19:34.967Z,7.29
2022-11-24T14:22:42.053Z,7.18
2022-11-24T14:25:51.393Z,7.09
2022-11-24T14:28:55.455Z,7.10
2022-11-24T14:32:03.522Z,7.11
2022-11-24T14:35:23.754Z,6.96
2022-11-24T14:38:26.546Z,6.97
2022-11-24T14:41:30.026Z,6.96
2022-11-24T14:44:39.198Z,6.99
2022-11-24T14:47:46.678Z,6.97
2022-11-24T14:50:49.572Z,7.08
2022-11-24T14:53:55.143Z,6.94
2022-11-24T14:57:01.827Z,6.93
2022-11-24T15:00:08.994Z,6.86
2022-11-24T15:03:18.173Z,6.92
2022-11-24T15:06:22.247Z,6.90
2022-11-24T15:09:33.353Z,6.88
2022-11-24T15:12:40.478Z,6.88
2022-11-24T15:15:50.627Z,6.82
2022-11-24T15:19:00.228Z,6.83
2022-11-24T15:22:41.981Z,6.88
2022-11-24T15:25:46.535Z,6.90
2022-11-24T15:28:49.257Z,6.89
2022-11-24T15:31:53.501Z,6.83
2022-11-24T15:34:57.620Z,6.83
2022-11-24T15:41:24.354Z,6.81
2022-11-24T15:44:27.031Z,6.82
2022-11-24T15:47:31.024Z,6.80
2022-11-24T15:50:36.934Z,6.88
2022-11-24T15:53:42.298Z,6.79
2022-11-24T15:56:47.513Z,6.89
2022-11-24T15:59:51.637Z,6.76
2022-11-24T16:02:55.371Z,6.76
2022-11-24T16:05:59.699Z,6.77
2022-11-24T16:09:03.931Z,6.78
2022-11-24T16:12:09.432Z,6.78
2022-11-24T16:15:12.133Z,6.76
2022-11-24T16:18:16.350Z,6.73
2022-11-24T16:21:20.505Z,6.66
2022-11-24T16:24:24.468Z,6.63
2022-11-24T16:27:27.217Z,6.61
2022-11-24T16:30:29.899Z,6.56
2022-11-24T16:33:32.856Z,6.55
2022-11-24T16:36:36.931Z,6.42
2022-11-24T16:39:39.652Z,6.46
2022-11-24T16:42:42.363Z,6.46
2022-11-24T16:45:46.005Z,6.51
2022-11-24T16:48:50.777Z,6.46
2022-11-24T16:51:54.912Z,6.43
2022-11-24T16:54:58.855Z,6.40
2022-11-24T16:58:04.977Z,6.41
2022-11-24T17:01:10.256Z,6.42
2022-11-24T17:04:14.455Z,6.39
2022-11-24T17:07:19.838Z,6.39
2022-11-24T17:10:22.571Z,6.37
2022-11-24T17:13:25.372Z,6.39
2022-11-24T17:16:29.369Z,6.41
2022-11-24T17:19:33.969Z,6.41
2022-11-24T17:22:38.029Z,6.39
2022-11-24T17:25:41.235Z,6.41
2022-11-24T17:28:45.540Z,6.27
2022-11-24T17:31:48.244Z,6.24
2022-11-24T17:34:50.941Z,6.22
2022-11-24T17:37:58.230Z,6.22
2022-11-24T17:41:02.195Z,6.24
2022-11-24T17:44:06.170Z,6.22
2022-11-24T17:50:30.435Z,6.30
2022-11-24T17:53:38.499Z,6.32
2022-11-24T17:56:42.580Z,6.22
2022-11-24T17:59:45.305Z,6.22
2022-11-24T18:02:48.036Z,6.24
2022-11-24T18:09:15.010Z,6.24
2022-11-24T18:15:39.294Z,6.17
2022-11-24T18:18:47.395Z,6.11
2022-11-24T18:21:53.887Z,6.08
2022-11-24T18:24:57.961Z,5.99
2022-11-24T18:28:01.875Z,5.94
2022-11-24T18:31:07.451Z,5.94
2022-11-24T18:34:10.155Z,5.86
2022-11-24T18:40:41.066Z,5.71
2022-11-24T18:43:44.245Z,5.68
2022-11-24T18:50:09.178Z,5.54
2022-11-24T18:53:11.897Z,5.51
2022-11-24T18:56:18.708Z,5.47
2022-11-24T18:59:21.410Z,5.38
2022-11-24T19:02:24.913Z,5.29
2022-11-24T19:05:27.691Z,5.18
2022-11-24T19:08:31.700Z,5.13
2022-11-24T19:11:38.027Z,5.13
2022-11-24T19:14:40.718Z,5.10
2022-11-24T19:17:47.304Z,5.07
2022-11-24T19:20:50.225Z,4.97
2022-11-24T19:23:53.171Z,4.95
2022-11-24T19:26:57.729Z,4.89
2022-11-24T19:30:00.448Z,4.85
2022-11-24T19:33:03.196Z,4.80
2022-11-24T19:36:08.676Z,4.73
2022-11-24T19:39:18.321Z,4.71
2022-11-24T19:42:22.420Z,4.72
2022-11-24T19:45:25.248Z,4.62
2022-11-24T19:48:32.656Z,4.59
2022-11-24T19:51:37.144Z,4.53
2022-11-24T19:54:40.488Z,4.47
2022-11-24T19:57:44.600Z,4.47
2022-11-24T20:00:48.668Z,4.39
2022-11-24T20:03:56.178Z,4.28
2022-11-24T20:07:00.150Z,4.26
2022-11-24T20:10:07.572Z,4.22
2022-11-24T20:16:34.675Z,4.18
2022-11-24T20:19:38.710Z,4.12
2022-11-24T20:22:42.393Z,4.11
2022-11-24T20:25:46.323Z,4.06
2022-11-24T20:28:50.937Z,4.01
2022-11-24T20:31:57.308Z,3.99
2022-11-24T20:35:02.875Z,3.94
2022-11-24T20:38:05.556Z,3.89
2022-11-24T20:41:11.653Z,3.84
2022-11-24T20:44:18.342Z,3.82
2022-11-24T20:47:22.322Z,3.79
2022-11-24T20:50:26.282Z,3.82
2022-11-24T20:53:30.251Z,3.77
2022-11-24T20:56:36.488Z,3.76
2022-11-24T20:59:41.884Z,3.73
2022-11-24T21:02:44.694Z,3.73
2022-11-24T21:05:48.897Z,3.67
2022-11-24T21:08:52.381Z,3.67
2022-11-24T21:11:56.667Z,3.63
2022-11-24T21:18:23.088Z,3.61
2022-11-24T21:21:29.461Z,3.60
2022-11-24T21:24:32.236Z,3.57
2022-11-24T21:27:36.292Z,3.57
2022-11-24T21:30:41.627Z,3.53
2022-11-24T21:33:45.863Z,3.52
2022-11-24T21:36:50.233Z,3.59
2022-11-24T21:39:54.226Z,3.49
2022-11-24T21:42:58.971Z,3.47
2022-11-24T21:46:05.430Z,3.43
2022-11-24T21:49:08.288Z,3.44
2022-11-24T21:52:12.268Z,3.46
2022-11-24T21:55:16.471Z,3.46
2022-11-24T21:58:19.166Z,3.47
2022-11-24T22:01:26.432Z,3.52
2022-11-24T22:04:29.215Z,3.54
2022-11-24T22:07:33.809Z,3.59
2022-11-24T22:10:36.531Z,3.59
2022-11-24T22:13:40.797Z,3.64
2022-11-24T22:16:45.003Z,3.67
2022-11-24T22:23:09.547Z,3.71
2022-11-24T22:26:18.504Z,3.77
2022-11-24T22:29:22.556Z,3.84
2022-11-24T22:32:26.704Z,3.88
2022-11-24T22:35:29.466Z,3.90
2022-11-24T22:38:35.135Z,3.95
2022-11-24T22:41:37.821Z,3.99
2022-11-24T22:44:41.752Z,4.05
2022-11-24T22:47:45.795Z,4.11
2022-11-24T22:50:49.830Z,4.17
2022-11-24T22:53:55.360Z,4.20
2022-11-24T22:56:58.058Z,4.25
2022-11-24T23:00:02.001Z,4.29
2022-11-24T23:03:06.236Z,4.33
2022-11-24T23:06:13.710Z,4.38
2022-11-24T23:09:16.537Z,4.43
2022-11-24T23:12:20.686Z,4.43
2022-11-24T23:15:24.697Z,4.45
2022-11-24T23:18:28.761Z,4.52
2022-11-24T23:21:35.324Z,4.55
2022-11-24T23:24:38.223Z,4.57
2022-11-24T23:27:42.253Z,4.60
2022-11-24T23:30:45.444Z,4.59
2022-11-24T23:33:50.835Z,4.63
2022-11-24T23:36:54.788Z,4.67
2022-11-24T23:39:57.498Z,4.73
2022-11-24T23:43:01.482Z,4.80
2022-11-24T23:46:05.033Z,4.79
2022-11-24T23:49:11.712Z,4.82
2022-11-24T23:52:15.681Z,4.82
2022-11-24T23:55:19.030Z,4.82
2022-11-24T23:58:23.033Z,4.86
